sensor_id;sensor_type;location;lat;lon;timestamp;pressure;altitude;pressure_sealevel;temperature;humidity
11345;BME280;5727;42.600;23.028;2023-01-25T00:01:54;94652.13;;;4.21;100.00
11345;BME280;5727;42.600;23.028;2023-01-25T00:04:22;94646.97;;;4.16;100.00
11345;BME280;5727;42.600;23.028;2023-01-25T00:06:52;94641.78;;;4.16;100.00
11345;BME280;5727;42.600;23.028;2023-01-25T00:09:19;94649.81;;;4.19;100.00
11345;BME280;5727;42.600;23.028;2023-01-25T00:11:46;94656.03;;;4.23;100.00
11345;BME280;5727;42.600;23.028;2023-01-25T00:14:14;94653.72;;;4.12;100.00
11345;BME280;5727;42.600;23.028;2023-01-25T00:16:41;94652.41;;;4.09;100.00
11345;BME280;5727;42.600;23.028;2023-01-25T00:19:09;94645.94;;;4.02;100.00
11345;BME280;5727;42.600;23.028;2023-01-25T00:21:37;94646.47;;;4.09;100.00
11345;BME280;5727;42.600;23.028;2023-01-25T00:24:05;94650.59;;;4.10;100.00
11345;BME280;5727;42.600;23.028;2023-01-25T00:26:33;94654.75;;;4.06;100.00
11345;BME280;5727;42.600;23.028;2023-01-25T00:29:00;94651.16;;;3.97;100.00
11345;BME280;5727;42.600;23.028;2023-01-25T00:31:39;94651.94;;;3.97;100.00
11345;BME280;5727;42.600;23.028;2023-01-25T00:34:36;94658.91;;;4.02;100.00
11345;BME280;5727;42.600;23.028;2023-01-25T00:37:12;94654.75;;;4.06;100.00
11345;BME280;5727;42.600;23.028;2023-01-25T00:39:39;94650.09;;;4.03;100.00
11345;BME280;5727;42.600;23.028;2023-01-25T00:42:07;94652.69;;;4.08;100.00
11345;BME280;5727;42.600;23.028;2023-01-25T00:44:35;94646.47;;;4.04;100.00
11345;BME280;5727;42.600;23.028;2023-01-25T00:47:03;94654.75;;;4.11;100.00
11345;BME280;5727;42.600;23.028;2023-01-25T00:49:31;94653.97;;;4.15;100.00
11345;BME280;5727;42.600;23.028;2023-01-25T00:51:58;94652.66;;;4.18;100.00
11345;BME280;5727;42.600;23.028;2023-01-25T00:54:25;94651.09;;;4.22;100.00
11345;BME280;5727;42.600;23.028;2023-01-25T00:56:52;94650.84;;;4.23;100.00
11345;BME280;5727;42.600;23.028;2023-01-25T00:59:21;94644.63;;;4.19;100.00
11345;BME280;5727;42.600;23.028;2023-01-25T01:01:48;94651.63;;;4.24;100.00
11345;BME280;5727;42.600;23.028;2023-01-25T01:04:17;94652.38;;;4.29;100.00
11345;BME280;5727;42.600;23.028;2023-01-25T01:06:44;94651.63;;;4.34;100.00
11345;BME280;5727;42.600;23.028;2023-01-25T01:09:12;94645.38;;;4.35;100.00
11345;BME280;5727;42.600;23.028;2023-01-25T01:11:39;94651.06;;;4.37;100.00
11345;BME280;5727;42.600;23.028;2023-01-25T01:14:06;94642.28;;;4.28;100.00
11345;BME280;5727;42.600;23.028;2023-01-25T01:16:34;94646.94;;;4.21;100.00
11345;BME280;5727;42.600;23.028;2023-01-25T01:19:01;94645.44;;;3.59;100.00
11345;BME280;5727;42.600;23.028;2023-01-25T01:21:29;94648.53;;;3.36;100.00
11345;BME280;5727;42.600;23.028;2023-01-25T01:23:56;94647.22;;;3.09;100.00
11345;BME280;5727;42.600;23.028;2023-01-25T01:26:23;94630.38;;;3.21;100.00
11345;BME280;5727;42.600;23.028;2023-01-25T01:28:49;94635.53;;;2.96;100.00
11345;BME280;5727;42.600;23.028;2023-01-25T01:31:17;94629.56;;;2.91;100.00
11345;BME280;5727;42.600;23.028;2023-01-25T01:33:48;94631.84;;;2.77;100.00
11345;BME280;5727;42.600;23.028;2023-01-25T01:36:16;94631.59;;;2.78;100.00
11345;BME280;5727;42.600;23.028;2023-01-25T01:38:45;94630.41;;;2.44;100.00
11345;BME280;5727;42.600;23.028;2023-01-25T01:41:13;94627.81;;;2.34;100.00
11345;BME280;5727;42.600;23.028;2023-01-25T01:43:40;94626.03;;;2.40;100.00
11345;BME280;5727;42.600;23.028;2023-01-25T01:46:11;94622.97;;;2.53;100.00
11345;BME280;5727;42.600;23.028;2023-01-25T01:48:41;94627.41;;;2.57;100.00
11345;BME280;5727;42.600;23.028;2023-01-25T01:51:16;94624.56;;;2.69;100.00
11345;BME280;5727;42.600;23.028;2023-01-25T01:53:49;94624.06;;;2.72;100.00
11345;BME280;5727;42.600;23.028;2023-01-25T01:56:21;94625.09;;;2.71;100.00
11345;BME280;5727;42.600;23.028;2023-01-25T01:58:50;94618.38;;;2.65;100.00
11345;BME280;5727;42.600;23.028;2023-01-25T02:01:19;94618.16;;;2.82;100.00
11345;BME280;5727;42.600;23.028;2023-01-25T02:03:46;94617.16;;;2.98;100.00
11345;BME280;5727;42.600;23.028;2023-01-25T02:06:15;94624.16;;;3.12;100.00
11345;BME280;5727;42.600;23.028;2023-01-25T02:08:48;94618.75;;;3.24;100.00
11345;BME280;5727;42.600;23.028;2023-01-25T02:11:18;94619.78;;;3.33;100.00
11345;BME280;5727;42.600;23.028;2023-01-25T02:13:46;94616.19;;;3.34;100.00
11345;BME280;5727;42.600;23.028;2023-01-25T02:16:15;94617.22;;;3.43;100.00
11345;BME280;5727;42.600;23.028;2023-01-25T02:18:42;94613.06;;;3.52;100.00
11345;BME280;5727;42.600;23.028;2023-01-25T02:21:09;94609.16;;;3.59;100.00
11345;BME280;5727;42.600;23.028;2023-01-25T02:23:40;94604.00;;;3.54;100.00
11345;BME280;5727;42.600;23.028;2023-01-25T02:26:15;94611.25;;;3.62;100.00
11345;BME280;5727;42.600;23.028;2023-01-25T02:28:46;94611.50;;;3.66;100.00
11345;BME280;5727;42.600;23.028;2023-01-25T02:31:15;94620.06;;;3.66;100.00
11345;BME280;5727;42.600;23.028;2023-01-25T02:33:42;94614.63;;;3.63;100.00
11345;BME280;5727;42.600;23.028;2023-01-25T02:36:18;94615.41;;;3.58;100.00
11345;BME280;5727;42.600;23.028;2023-01-25T02:38:50;94616.97;;;3.39;100.00
11345;BME280;5727;42.600;23.028;2023-01-25T02:41:24;94616.69;;;3.26;100.00
11345;BME280;5727;42.600;23.028;2023-01-25T02:43:52;94610.72;;;3.20;100.00
11345;BME280;5727;42.600;23.028;2023-01-25T02:46:21;94610.97;;;3.24;100.00
11345;BME280;5727;42.600;23.028;2023-01-25T02:48:50;94611.25;;;3.32;100.00
11345;BME280;5727;42.600;23.028;2023-01-25T02:51:18;94613.31;;;3.25;100.00
11345;BME280;5727;42.600;23.028;2023-01-25T02:53:45;94611.25;;;3.32;100.00
11345;BME280;5727;42.600;23.028;2023-01-25T02:56:12;94615.16;;;3.40;100.00
11345;BME280;5727;42.600;23.028;2023-01-25T02:58:41;94620.84;;;3.47;100.00
11345;BME280;5727;42.600;23.028;2023-01-25T03:01:08;94619.53;;;3.59;100.00
11345;BME280;5727;42.600;23.028;2023-01-25T03:03:35;94615.41;;;3.68;100.00
11345;BME280;5727;42.600;23.028;2023-01-25T03:06:02;94617.19;;;3.73;100.00
11345;BME280;5727;42.600;23.028;2023-01-25T03:08:28;94624.19;;;3.78;100.00
11345;BME280;5727;42.600;23.028;2023-01-25T03:10:56;94617.72;;;3.80;100.00
11345;BME280;5727;42.600;23.028;2023-01-25T03:13:23;94614.63;;;3.68;100.00
11345;BME280;5727;42.600;23.028;2023-01-25T03:15:57;94617.47;;;3.71;100.00
11345;BME280;5727;42.600;23.028;2023-01-25T03:18:24;94615.13;;;3.65;100.00
11345;BME280;5727;42.600;23.028;2023-01-25T03:20:51;94606.59;;;3.64;100.00
11345;BME280;5727;42.600;23.028;2023-01-25T03:23:18;94611.78;;;3.54;100.00
11345;BME280;5727;42.600;23.028;2023-01-25T03:25:45;94607.91;;;3.57;100.00
11345;BME280;5727;42.600;23.028;2023-01-25T03:28:12;94603.72;;;3.56;100.00
11345;BME280;5727;42.600;23.028;2023-01-25T03:30:38;94611.50;;;3.56;100.00
11345;BME280;5727;42.600;23.028;2023-01-25T03:33:06;94614.63;;;3.58;100.00
11345;BME280;5727;42.600;23.028;2023-01-25T03:35:33;94611.25;;;3.52;100.00
11345;BME280;5727;42.600;23.028;2023-01-25T03:38:00;94609.44;;;3.53;100.00
11345;BME280;5727;42.600;23.028;2023-01-25T03:40:27;94604.50;;;3.46;100.00
11345;BME280;5727;42.600;23.028;2023-01-25T03:42:53;94608.66;;;3.27;100.00
11345;BME280;5727;42.600;23.028;2023-01-25T03:45:20;94604.00;;;3.29;100.00
11345;BME280;5727;42.600;23.028;2023-01-25T03:47:47;94607.34;;;3.25;100.00
11345;BME280;5727;42.600;23.028;2023-01-25T03:50:15;94598.53;;;3.06;100.00
11345;BME280;5727;42.600;23.028;2023-01-25T03:52:47;94595.16;;;3.10;100.00
11345;BME280;5727;42.600;23.028;2023-01-25T03:55:21;94593.09;;;3.17;100.00
11345;BME280;5727;42.600;23.028;2023-01-25T03:57:48;94580.94;;;3.28;100.00
11345;BME280;5727;42.600;23.028;2023-01-25T04:00:15;94583.56;;;3.38;100.00
11345;BME280;5727;42.600;23.028;2023-01-25T04:02:42;94583.28;;;3.44;100.00
11345;BME280;5727;42.600;23.028;2023-01-25T04:05:09;94585.34;;;3.47;100.00
11345;BME280;5727;42.600;23.028;2023-01-25T04:07:37;94586.13;;;3.48;100.00
11345;BME280;5727;42.600;23.028;2023-01-25T04:10:06;94589.50;;;3.48;100.00
11345;BME280;5727;42.600;23.028;2023-01-25T04:12:33;94592.59;;;3.55;100.00
11345;BME280;5727;42.600;23.028;2023-01-25T04:14:59;94593.63;;;3.54;100.00
11345;BME280;5727;42.600;23.028;2023-01-25T04:17:26;94591.81;;;3.60;100.00
11345;BME280;5727;42.600;23.028;2023-01-25T04:19:53;94599.84;;;3.68;100.00
11345;BME280;5727;42.600;23.028;2023-01-25T04:22:19;94599.06;;;3.73;100.00
11345;BME280;5727;42.600;23.028;2023-01-25T04:24:48;94596.75;;;3.56;100.00
11345;BME280;5727;42.600;23.028;2023-01-25T04:27:14;94592.59;;;3.25;100.00
11345;BME280;5727;42.600;23.028;2023-01-25T04:29:41;94595.69;;;3.12;100.00
11345;BME280;5727;42.600;23.028;2023-01-25T04:32:08;94599.06;;;3.13;100.00
11345;BME280;5727;42.600;23.028;2023-01-25T04:34:34;94595.66;;;2.87;100.00
11345;BME280;5727;42.600;23.028;2023-01-25T04:37:01;94595.88;;;2.70;100.00
11345;BME280;5727;42.600;23.028;2023-01-25T04:39:28;94604.34;;;2.46;100.00
11345;BME280;5727;42.600;23.028;2023-01-25T04:41:56;94600.06;;;2.20;100.00
11345;BME280;5727;42.600;23.028;2023-01-25T04:44:23;94604.63;;;1.98;100.00
11345;BME280;5727;42.600;23.028;2023-01-25T04:46:49;94608.16;;;1.86;100.00
11345;BME280;5727;42.600;23.028;2023-01-25T04:49:16;94610.00;;;1.91;100.00
11345;BME280;5727;42.600;23.028;2023-01-25T04:51:43;94613.44;;;2.07;100.00
11345;BME280;5727;42.600;23.028;2023-01-25T04:54:09;94615.28;;;2.11;100.00
11345;BME280;5727;42.600;23.028;2023-01-25T04:56:36;94616.56;;;2.09;100.00
11345;BME280;5727;42.600;23.028;2023-01-25T04:59:05;94611.13;;;2.10;100.00
11345;BME280;5727;42.600;23.028;2023-01-25T05:01:32;94613.97;;;2.04;100.00
11345;BME280;5727;42.600;23.028;2023-01-25T05:03:59;94601.84;;;2.14;100.00
11345;BME280;5727;42.600;23.028;2023-01-25T05:06:25;94608.09;;;2.23;100.00
11345;BME280;5727;42.600;23.028;2023-01-25T05:08:52;94604.78;;;2.33;100.00
11345;BME280;5727;42.600;23.028;2023-01-25T05:11:19;94608.19;;;2.43;100.00
11345;BME280;5727;42.600;23.028;2023-01-25T05:13:46;94614.38;;;2.42;100.00
11345;BME280;5727;42.600;23.028;2023-01-25T05:16:14;94605.88;;;2.42;100.00
11345;BME280;5727;42.600;23.028;2023-01-25T05:18:41;94611.72;;;2.27;100.00
11345;BME280;5727;42.600;23.028;2023-01-25T05:21:08;94603.19;;;2.22;100.00
11345;BME280;5727;42.600;23.028;2023-01-25T05:23:55;94616.09;;;2.17;100.00
11345;BME280;5727;42.600;23.028;2023-01-25T05:26:22;94609.81;;;2.08;100.00
11345;BME280;5727;42.600;23.028;2023-01-25T05:29:07;94600.72;;;1.95;100.00
11345;BME280;5727;42.600;23.028;2023-01-25T05:31:35;94594.53;;;2.01;100.00
11345;BME280;5727;42.600;23.028;2023-01-25T05:34:02;94600.25;;;2.03;100.00
11345;BME280;5727;42.600;23.028;2023-01-25T05:36:29;94605.69;;;2.07;100.00
11345;BME280;5727;42.600;23.028;2023-01-25T05:38:55;94610.72;;;1.86;100.00
11345;BME280;5727;42.600;23.028;2023-01-25T05:41:22;94610.91;;;1.75;100.00
11345;BME280;5727;42.600;23.028;2023-01-25T05:43:49;94609.81;;;1.66;100.00
11345;BME280;5727;42.600;23.028;2023-01-25T05:46:16;94604.97;;;1.74;100.00
11345;BME280;5727;42.600;23.028;2023-01-25T05:48:46;94603.31;;;2.00;100.00
11345;BME280;5727;42.600;23.028;2023-01-25T05:51:13;94608.78;;;2.04;100.00
11345;BME280;5727;42.600;23.028;2023-01-25T05:53:40;94615.72;;;1.98;100.00
11345;BME280;5727;42.600;23.028;2023-01-25T05:56:08;94613.31;;;1.86;100.00
11345;BME280;5727;42.600;23.028;2023-01-25T05:58:35;94611.69;;;1.70;100.00
11345;BME280;5727;42.600;23.028;2023-01-25T06:01:03;94602.44;;;1.84;100.00
11345;BME280;5727;42.600;23.028;2023-01-25T06:03:31;94609.47;;;1.94;100.00
11345;BME280;5727;42.600;23.028;2023-01-25T06:06:00;94613.63;;;1.95;100.00
11345;BME280;5727;42.600;23.028;2023-01-25T06:08:28;94616.19;;;1.90;100.00
11345;BME280;5727;42.600;23.028;2023-01-25T06:10:55;94616.06;;;1.75;100.00
11345;BME280;5727;42.600;23.028;2023-01-25T06:13:22;94615.78;;;1.66;100.00
11345;BME280;5727;42.600;23.028;2023-01-25T06:15:52;94605.53;;;1.81;100.00
11345;BME280;5727;42.600;23.028;2023-01-25T06:18:20;94611.31;;;1.94;100.00
11345;BME280;5727;42.600;23.028;2023-01-25T06:20:49;94614.44;;;2.01;100.00
11345;BME280;5727;42.600;23.028;2023-01-25T06:23:17;94617.03;;;2.06;100.00
11345;BME280;5727;42.600;23.028;2023-01-25T06:25:44;94616.63;;;2.19;100.00
11345;BME280;5727;42.600;23.028;2023-01-25T06:28:10;94622.00;;;2.17;100.00
11345;BME280;5727;42.600;23.028;2023-01-25T06:30:37;94619.63;;;2.06;100.00
11345;BME280;5727;42.600;23.028;2023-01-25T06:33:04;94615.44;;;1.95;100.00
11345;BME280;5727;42.600;23.028;2023-01-25T06:35:31;94618.81;;;1.95;100.00
11345;BME280;5727;42.600;23.028;2023-01-25T06:37:59;94611.91;;;2.11;100.00
11345;BME280;5727;42.600;23.028;2023-01-25T06:40:27;94612.19;;;2.09;100.00
11345;BME280;5727;42.600;23.028;2023-01-25T06:42:54;94617.09;;;2.11;100.00
11345;BME280;5727;42.600;23.028;2023-01-25T06:45:21;94616.56;;;2.09;100.00
11345;BME280;5727;42.600;23.028;2023-01-25T06:47:48;94615.78;;;2.08;100.00
11345;BME280;5727;42.600;23.028;2023-01-25T06:50:16;94613.69;;;2.05;100.00
11345;BME280;5727;42.600;23.028;2023-01-25T06:52:50;94606.94;;;1.99;100.00
11345;BME280;5727;42.600;23.028;2023-01-25T06:55:17;94610.88;;;2.12;100.00
11345;BME280;5727;42.600;23.028;2023-01-25T06:57:45;94607.88;;;2.35;100.00
11345;BME280;5727;42.600;23.028;2023-01-25T07:00:14;94607.72;;;2.56;100.00
11345;BME280;5727;42.600;23.028;2023-01-25T07:02:41;94606.47;;;2.74;100.00
11345;BME280;5727;42.600;23.028;2023-01-25T07:05:08;94604.91;;;2.73;100.00
11345;BME280;5727;42.600;23.028;2023-01-25T07:07:35;94609.00;;;2.54;100.00
11345;BME280;5727;42.600;23.028;2023-01-25T07:10:02;94599.72;;;2.63;100.00
11345;BME280;5727;42.600;23.028;2023-01-25T07:12:28;94597.41;;;2.71;100.00
11345;BME280;5727;42.600;23.028;2023-01-25T07:14:57;94600.81;;;2.87;100.00
11345;BME280;5727;42.600;23.028;2023-01-25T07:17:23;94605.28;;;3.07;100.00
11345;BME280;5727;42.600;23.028;2023-01-25T07:19:50;94613.06;;;3.22;100.00
11345;BME280;5727;42.600;23.028;2023-01-25T07:22:17;94615.91;;;3.30;100.00
11345;BME280;5727;42.600;23.028;2023-01-25T07:24:43;94621.09;;;3.35;100.00
11345;BME280;5727;42.600;23.028;2023-01-25T07:27:14;94624.94;;;3.03;100.00
11345;BME280;5727;42.600;23.028;2023-01-25T07:29:41;94632.16;;;2.96;100.00
11345;BME280;5727;42.600;23.028;2023-01-25T07:32:11;94635.97;;;2.73;100.00
11345;BME280;5727;42.600;23.028;2023-01-25T07:34:38;94624.56;;;2.69;100.00
11345;BME280;5727;42.600;23.028;2023-01-25T07:37:04;94624.59;;;2.79;100.00
11345;BME280;5727;42.600;23.028;2023-01-25T07:39:31;94633.16;;;2.85;100.00
11345;BME280;5727;42.600;23.028;2023-01-25T07:41:58;94625.91;;;2.87;100.00
11345;BME280;5727;42.600;23.028;2023-01-25T07:44:24;94640.72;;;3.11;100.00
11345;BME280;5727;42.600;23.028;2023-01-25T07:46:52;94631.97;;;3.27;100.00
11345;BME280;5727;42.600;23.028;2023-01-25T07:49:20;94626.53;;;3.44;100.00
11345;BME280;5727;42.600;23.028;2023-01-25T07:51:48;94622.91;;;3.50;100.00
11345;BME280;5727;42.600;23.028;2023-01-25T07:54:15;94619.81;;;3.63;100.00
11345;BME280;5727;42.600;23.028;2023-01-25T07:56:42;94621.63;;;3.78;100.00
11345;BME280;5727;42.600;23.028;2023-01-25T07:59:09;94627.31;;;3.90;100.00
11345;BME280;5727;42.600;23.028;2023-01-25T08:01:37;94625.47;;;4.00;100.00
11345;BME280;5727;42.600;23.028;2023-01-25T08:04:04;94627.28;;;4.15;100.00
11345;BME280;5727;42.600;23.028;2023-01-25T08:06:35;94625.44;;;4.15;100.00
11345;BME280;5727;42.600;23.028;2023-01-25T08:09:05;94626.97;;;4.21;100.00
11345;BME280;5727;42.600;23.028;2023-01-25T08:11:33;94626.19;;;4.26;100.00
11345;BME280;5727;42.600;23.028;2023-01-25T08:13:59;94630.34;;;4.27;100.00
11345;BME280;5727;42.600;23.028;2023-01-25T08:16:28;94635.53;;;4.32;100.00
11345;BME280;5727;42.600;23.028;2023-01-25T08:18:57;94630.84;;;4.34;100.00
11345;BME280;5727;42.600;23.028;2023-01-25T08:21:25;94632.41;;;4.35;100.00
11345;BME280;5727;42.600;23.028;2023-01-25T08:23:56;94629.50;;;4.46;100.00
11345;BME280;5727;42.600;23.028;2023-01-25T08:26:23;94627.66;;;4.52;100.00
11345;BME280;5727;42.600;23.028;2023-01-25T08:28:49;94631.59;;;4.49;100.00
11345;BME280;5727;42.600;23.028;2023-01-25T08:31:20;94629.00;;;4.49;100.00
11345;BME280;5727;42.600;23.028;2023-01-25T08:33:47;94619.63;;;4.58;100.00
11345;BME280;5727;42.600;23.028;2023-01-25T08:36:15;94630.25;;;4.57;100.00
11345;BME280;5727;42.600;23.028;2023-01-25T08:38:43;94619.81;;;4.67;100.00
11345;BME280;5727;42.600;23.028;2023-01-25T08:41:12;94620.34;;;4.74;100.00
11345;BME280;5727;42.600;23.028;2023-01-25T08:43:40;94623.38;;;4.86;100.00
11345;BME280;5727;42.600;23.028;2023-01-25T08:46:07;94622.81;;;4.94;100.00
11345;BME280;5727;42.600;23.028;2023-01-25T08:48:34;94610.34;;;4.96;100.00
11345;BME280;5727;42.600;23.028;2023-01-25T08:51:01;94611.31;;;5.05;100.00
11345;BME280;5727;42.600;23.028;2023-01-25T08:53:28;94611.03;;;5.12;100.00
11345;BME280;5727;42.600;23.028;2023-01-25T08:55:55;94608.19;;;5.08;100.00
11345;BME280;5727;42.600;23.028;2023-01-25T08:58:23;94617.00;;;5.12;100.00
11345;BME280;5727;42.600;23.028;2023-01-25T09:00:50;94612.28;;;5.19;100.00
11345;BME280;5727;42.600;23.028;2023-01-25T09:03:17;94612.22;;;5.29;100.00
11345;BME280;5727;42.600;23.028;2023-01-25T09:05:44;94620.53;;;5.26;100.00
11345;BME280;5727;42.600;23.028;2023-01-25T09:08:10;94618.97;;;5.30;100.00
11345;BME280;5727;42.600;23.028;2023-01-25T09:10:37;94621.53;;;5.35;100.00
11345;BME280;5727;42.600;23.028;2023-01-25T09:13:04;94618.38;;;5.38;100.00
11345;BME280;5727;42.600;23.028;2023-01-25T09:15:32;94617.81;;;5.46;100.00
11345;BME280;5727;42.600;23.028;2023-01-25T09:17:58;94609.75;;;5.48;100.00
11345;BME280;5727;42.600;23.028;2023-01-25T09:20:25;94600.63;;;5.50;100.00
11345;BME280;5727;42.600;23.028;2023-01-25T09:22:53;94610.97;;;5.55;100.00
11345;BME280;5727;42.600;23.028;2023-01-25T09:25:20;94601.31;;;5.61;100.00
11345;BME280;5727;42.600;23.028;2023-01-25T09:27:47;94596.72;;;5.53;100.00
11345;BME280;5727;42.600;23.028;2023-01-25T09:30:15;94603.00;;;5.47;100.00
11345;BME280;5727;42.600;23.028;2023-01-25T09:32:43;94600.59;;;5.55;100.00
11345;BME280;5727;42.600;23.028;2023-01-25T09:35:10;94590.41;;;5.59;100.00
11345;BME280;5727;42.600;23.028;2023-01-25T09:37:36;94590.41;;;5.64;100.00
11345;BME280;5727;42.600;23.028;2023-01-25T09:40:04;94581.81;;;5.64;100.00
11345;BME280;5727;42.600;23.028;2023-01-25T09:42:42;94588.59;;;5.65;100.00
11345;BME280;5727;42.600;23.028;2023-01-25T09:45:29;94577.03;;;5.47;100.00
11345;BME280;5727;42.600;23.028;2023-01-25T09:48:03;94569.22;;;5.47;100.00
11345;BME280;5727;42.600;23.028;2023-01-25T09:50:37;94564.84;;;5.42;100.00
11345;BME280;5727;42.600;23.028;2023-01-25T09:53:29;94557.75;;;5.53;100.00
11345;BME280;5727;42.600;23.028;2023-01-25T09:56:01;94553.78;;;5.61;100.00
11345;BME280;5727;42.600;23.028;2023-01-25T09:58:32;94555.28;;;5.67;100.00
11345;BME280;5727;42.600;23.028;2023-01-25T10:01:23;94551.63;;;5.68;100.00
11345;BME280;5727;42.600;23.028;2023-01-25T10:03:57;94548.72;;;5.74;100.00
11345;BME280;5727;42.600;23.028;2023-01-25T10:06:34;94541.41;;;5.76;100.00
11345;BME280;5727;42.600;23.028;2023-01-25T10:09:06;94544.50;;;5.83;100.00
11345;BME280;5727;42.600;23.028;2023-01-25T10:11:38;94543.19;;;5.86;100.00
11345;BME280;5727;42.600;23.028;2023-01-25T10:14:11;94534.97;;;5.69;100.00
11345;BME280;5727;42.600;23.028;2023-01-25T10:16:46;94527.06;;;5.79;100.00
11345;BME280;5727;42.600;23.028;2023-01-25T10:19:19;94529.09;;;5.87;100.00
11345;BME280;5727;42.600;23.028;2023-01-25T10:21:52;94526.41;;;5.97;100.00
11345;BME280;5727;42.600;23.028;2023-01-25T10:24:37;94523.31;;;5.95;100.00
11345;BME280;5727;42.600;23.028;2023-01-25T10:27:16;94525.34;;;5.98;100.00
11345;BME280;5727;42.600;23.028;2023-01-25T10:29:46;94512.31;;;6.03;100.00
11345;BME280;5727;42.600;23.028;2023-01-25T10:32:18;94509.13;;;6.06;100.00
11345;BME280;5727;42.600;23.028;2023-01-25T10:34:48;94500.72;;;6.14;100.00
11345;BME280;5727;42.600;23.028;2023-01-25T10:37:18;94512.28;;;6.26;100.00
11345;BME280;5727;42.600;23.028;2023-01-25T10:39:52;94503.22;;;6.24;100.00
11345;BME280;5727;42.600;23.028;2023-01-25T10:42:23;94507.31;;;6.30;100.00
11345;BME280;5727;42.600;23.028;2023-01-25T10:44:51;94503.34;;;6.32;100.00
11345;BME280;5727;42.600;23.028;2023-01-25T10:47:23;94495.34;;;6.29;100.00
11345;BME280;5727;42.600;23.028;2023-01-25T10:49:54;94490.00;;;6.20;100.00
11345;BME280;5727;42.600;23.028;2023-01-25T10:52:23;94485.00;;;6.24;100.00
11345;BME280;5727;42.600;23.028;2023-01-25T10:55:06;94481.34;;;6.25;100.00
11345;BME280;5727;42.600;23.028;2023-01-25T10:57:41;94479.50;;;6.25;100.00
11345;BME280;5727;42.600;23.028;2023-01-25T11:00:21;94482.75;;;6.36;100.00
11345;BME280;5727;42.600;23.028;2023-01-25T11:02:48;94481.63;;;6.42;100.00
11345;BME280;5727;42.600;23.028;2023-01-25T11:05:29;94481.59;;;6.47;100.00
11345;BME280;5727;42.600;23.028;2023-01-25T11:07:56;94473.63;;;6.38;100.00
11345;BME280;5727;42.600;23.028;2023-01-25T11:10:28;94471.53;;;6.17;100.00
11345;BME280;5727;42.600;23.028;2023-01-25T11:13:20;94467.22;;;6.07;100.00
11345;BME280;5727;42.600;23.028;2023-01-25T11:15:50;94450.91;;;6.02;100.00
11345;BME280;5727;42.600;23.028;2023-01-25T11:18:20;94451.88;;;6.11;100.00
11345;BME280;5727;42.600;23.028;2023-01-25T11:21:03;94452.16;;;6.28;100.00
11345;BME280;5727;42.600;23.028;2023-01-25T11:23:30;94434.53;;;6.43;100.00
11345;BME280;5727;42.600;23.028;2023-01-25T11:26:10;94429.94;;;6.35;100.00
11345;BME280;5727;42.600;23.028;2023-01-25T11:28:37;94430.63;;;6.60;100.00
11345;BME280;5727;42.600;23.028;2023-01-25T11:31:04;94426.47;;;6.77;100.00
11345;BME280;5727;42.600;23.028;2023-01-25T11:33:34;94428.97;;;7.01;100.00
11345;BME280;5727;42.600;23.028;2023-01-25T11:36:09;94420.09;;;7.02;100.00
11345;BME280;5727;42.600;23.028;2023-01-25T11:38:44;94410.84;;;7.09;100.00
11345;BME280;5727;42.600;23.028;2023-01-25T11:41:21;94412.84;;;6.99;100.00
11345;BME280;5727;42.600;23.028;2023-01-25T11:44:02;94413.84;;;6.84;100.00
11345;BME280;5727;42.600;23.028;2023-01-25T11:46:45;94402.53;;;7.07;100.00
11345;BME280;5727;42.600;23.028;2023-01-25T11:49:31;94400.09;;;7.29;100.00
11345;BME280;5727;42.600;23.028;2023-01-25T11:52:11;94396.75;;;7.10;100.00
11345;BME280;5727;42.600;23.028;2023-01-25T11:55:00;94387.97;;;7.06;100.00
11345;BME280;5727;42.600;23.028;2023-01-25T11:57:39;94388.22;;;6.91;99.56
11345;BME280;5727;42.600;23.028;2023-01-25T12:00:29;94389.28;;;6.90;100.00
11345;BME280;5727;42.600;23.028;2023-01-25T12:03:31;94389.59;;;7.02;100.00
11345;BME280;5727;42.600;23.028;2023-01-25T12:06:05;94385.94;;;7.17;99.88
11345;BME280;5727;42.600;23.028;2023-01-25T12:08:50;94384.63;;;7.19;99.74
11345;BME280;5727;42.600;23.028;2023-01-25T12:11:33;94387.72;;;7.21;98.72
11345;BME280;5727;42.600;23.028;2023-01-25T12:14:10;94383.25;;;7.08;100.00
11345;BME280;5727;42.600;23.028;2023-01-25T12:16:50;94383.81;;;7.05;100.00
11345;BME280;5727;42.600;23.028;2023-01-25T12:19:35;94378.94;;;6.85;100.00
11345;BME280;5727;42.600;23.028;2023-01-25T12:22:15;94377.69;;;6.83;100.00
11345;BME280;5727;42.600;23.028;2023-01-25T12:24:52;94363.28;;;6.72;100.00
11345;BME280;5727;42.600;23.028;2023-01-25T12:27:31;94363.28;;;6.72;100.00
11345;BME280;5727;42.600;23.028;2023-01-25T12:30:09;94355.75;;;6.70;100.00
11345;BME280;5727;42.600;23.028;2023-01-25T12:32:42;94358.47;;;6.79;100.00
11345;BME280;5727;42.600;23.028;2023-01-25T12:35:21;94362.50;;;6.71;100.00
11345;BME280;5727;42.600;23.028;2023-01-25T12:37:51;94364.16;;;6.81;100.00
11345;BME280;5727;42.600;23.028;2023-01-25T12:40:30;94358.50;;;6.60;100.00
11345;BME280;5727;42.600;23.028;2023-01-25T12:42:58;94362.28;;;6.35;100.00
11345;BME280;5727;42.600;23.028;2023-01-25T12:45:30;94348.00;;;6.33;100.00
11345;BME280;5727;42.600;23.028;2023-01-25T12:48:02;94348.88;;;6.42;100.00
11345;BME280;5727;42.600;23.028;2023-01-25T12:50:41;94338.72;;;6.27;100.00
11345;BME280;5727;42.600;23.028;2023-01-25T12:53:17;94343.63;;;6.28;100.00
11345;BME280;5727;42.600;23.028;2023-01-25T12:55:47;94335.72;;;6.52;100.00
11345;BME280;5727;42.600;23.028;2023-01-25T12:58:19;94343.22;;;6.72;99.91
11345;BME280;5727;42.600;23.028;2023-01-25T13:00:51;94339.38;;;6.83;97.64
11345;BME280;5727;42.600;23.028;2023-01-25T13:03:28;94336.78;;;6.83;96.85
11345;BME280;5727;42.600;23.028;2023-01-25T13:05:58;94330.34;;;6.94;96.01
11345;BME280;5727;42.600;23.028;2023-01-25T13:08:36;94332.59;;;6.69;94.29
11345;BME280;5727;42.600;23.028;2023-01-25T13:11:12;94331.00;;;6.54;95.92
11345;BME280;5727;42.600;23.028;2023-01-25T13:13:41;94326.81;;;6.72;96.62
11345;BME280;5727;42.600;23.028;2023-01-25T13:16:35;94328.53;;;6.63;93.63